createdAt,value
2023-05-05T00:00:58.011Z,16.60
2023-05-05T00:04:00.388Z,16.58
2023-05-05T00:07:02.639Z,16.56
2023-05-05T00:10:05.500Z,16.55
2023-05-05T00:13:08.239Z,16.53
2023-05-05T00:16:10.624Z,16.48
2023-05-05T00:19:12.918Z,16.45
2023-05-05T00:22:15.413Z,16.36
2023-05-05T00:25:17.695Z,16.31
2023-05-05T00:28:19.944Z,16.28
2023-05-05T00:31:22.654Z,16.30
2023-05-05T00:34:24.980Z,16.29
2023-05-05T00:37:27.416Z,16.29
2023-05-05T00:40:29.767Z,16.28
2023-05-05T00:43:32.482Z,16.26
2023-05-05T00:46:35.956Z,16.23
2023-05-05T00:49:38.550Z,16.21
2023-05-05T00:52:40.896Z,16.21
2023-05-05T00:55:43.105Z,16.14
2023-05-05T00:58:45.552Z,16.08
2023-05-05T01:01:48.452Z,16.03
2023-05-05T01:04:50.843Z,15.96
2023-05-05T01:08:22.468Z,15.89
2023-05-05T01:11:31.062Z,15.86
2023-05-05T01:14:41.143Z,15.82
2023-05-05T01:18:12.069Z,15.77
2023-05-05T01:21:19.009Z,15.79
2023-05-05T01:24:55.710Z,15.79
2023-05-05T01:28:13.288Z,15.84
2023-05-05T01:31:31.947Z,15.88
2023-05-05T01:34:37.238Z,15.89
2023-05-05T01:37:58.219Z,15.90
2023-05-05T01:41:17.639Z,15.81
2023-05-05T01:44:20.360Z,15.69
2023-05-05T01:47:23.815Z,15.58
2023-05-05T01:50:28.817Z,15.53
2023-05-05T01:53:31.434Z,15.42
2023-05-05T01:56:34.811Z,15.31
2023-05-05T01:59:40.735Z,15.23
2023-05-05T02:02:45.669Z,15.23
2023-05-05T02:05:49.215Z,15.33
2023-05-05T02:08:53.025Z,15.43
2023-05-05T02:11:58.074Z,15.48
2023-05-05T02:15:02.191Z,15.50
2023-05-05T02:18:06.559Z,15.46
2023-05-05T02:21:09.168Z,15.35
2023-05-05T02:24:11.574Z,15.32
2023-05-05T02:27:16.384Z,15.25
2023-05-05T02:30:19.952Z,15.19
2023-05-05T02:33:23.881Z,15.15
2023-05-05T02:36:28.650Z,15.13
2023-05-05T02:39:43.647Z,15.07
2023-05-05T02:42:50.136Z,15.04
2023-05-05T02:45:52.910Z,15.05
2023-05-05T02:48:56.381Z,15.07
2023-05-05T02:51:58.698Z,15.12
2023-05-05T02:55:05.374Z,15.14
2023-05-05T02:58:22.079Z,15.11
2023-05-05T03:01:57.453Z,15.16
2023-05-05T03:05:08.618Z,15.19
2023-05-05T03:08:18.640Z,15.20
2023-05-05T03:11:29.439Z,15.18
2023-05-05T03:14:36.541Z,15.18
2023-05-05T03:17:40.916Z,15.17
2023-05-05T03:20:44.077Z,15.12
2023-05-05T03:23:49.378Z,15.02
2023-05-05T03:26:55.673Z,14.93
2023-05-05T03:30:01.215Z,14.86
2023-05-05T03:33:04.057Z,14.84
2023-05-05T03:36:06.564Z,14.83
2023-05-05T03:39:10.809Z,14.84
2023-05-05T03:42:13.537Z,14.83
2023-05-05T03:45:15.910Z,14.82
2023-05-05T03:48:18.232Z,14.80
2023-05-05T03:51:21.176Z,14.79
2023-05-05T03:54:23.763Z,14.78
2023-05-05T03:57:27.495Z,14.76
2023-05-05T04:00:29.751Z,14.78
2023-05-05T04:03:32.549Z,14.82
2023-05-05T04:06:35.144Z,14.88
2023-05-05T04:09:44.277Z,15.03
2023-05-05T04:12:47.326Z,15.18
2023-05-05T04:15:49.901Z,15.24
2023-05-05T04:18:53.819Z,15.33
2023-05-05T04:21:56.394Z,15.39
2023-05-05T04:24:58.736Z,15.52
2023-05-05T04:28:01.505Z,15.53
2023-05-05T04:31:05.196Z,15.59
2023-05-05T04:34:11.465Z,15.62
2023-05-05T04:37:14.470Z,15.64
2023-05-05T04:40:16.877Z,15.73
2023-05-05T04:43:19.869Z,15.80
2023-05-05T04:46:22.735Z,15.85
2023-05-05T04:49:25.635Z,15.89
2023-05-05T04:52:28.006Z,15.94
2023-05-05T04:55:30.471Z,16.02
2023-05-05T04:58:34.398Z,16.08
2023-05-05T05:01:38.604Z,16.19
2023-05-05T05:04:41.239Z,16.30
2023-05-05T05:07:43.580Z,16.37
2023-05-05T05:10:45.821Z,16.53
2023-05-05T05:13:48.059Z,16.72
2023-05-05T05:16:52.402Z,16.93
2023-05-05T05:19:59.253Z,17.18
2023-05-05T05:23:02.401Z,17.40
2023-05-05T05:26:06.529Z,17.62
2023-05-05T05:29:10.381Z,17.88
2023-05-05T05:32:13.190Z,18.11
2023-05-05T05:35:15.886Z,18.26
2023-05-05T05:38:18.330Z,18.48
2023-05-05T05:41:21.674Z,18.71
2023-05-05T05:44:24.066Z,18.91
2023-05-05T05:47:26.757Z,18.99
2023-05-05T05:50:29.351Z,19.06
2023-05-05T05:53:33.997Z,19.18
2023-05-05T05:56:36.626Z,19.22
2023-05-05T05:59:38.914Z,19.42
2023-05-05T06:02:41.476Z,19.61
2023-05-05T06:05:48.031Z,19.75
2023-05-05T06:08:51.341Z,19.58
2023-05-05T06:11:53.667Z,19.52
2023-05-05T06:14:56.468Z,19.69
2023-05-05T06:17:58.830Z,19.86
2023-05-05T06:21:02.536Z,20.21
2023-05-05T06:24:06.285Z,20.48
2023-05-05T06:27:10.467Z,20.58
2023-05-05T06:30:13.335Z,20.82
2023-05-05T06:33:15.578Z,21.57
2023-05-05T06:36:17.949Z,22.52
2023-05-05T06:39:20.226Z,23.04
2023-05-05T06:42:22.569Z,23.21
2023-05-05T06:45:27.120Z,23.77
2023-05-05T06:48:29.396Z,24.57
2023-05-05T06:51:31.954Z,25.17
2023-05-05T06:54:34.171Z,25.68
2023-05-05T06:57:36.302Z,26.39
2023-05-05T07:00:39.644Z,26.96
2023-05-05T07:03:42.048Z,27.29
2023-05-05T07:06:44.314Z,27.27
2023-05-05T07:09:46.542Z,26.81
2023-05-05T07:12:49.942Z,27.42
2023-05-05T07:15:52.274Z,28.61
2023-05-05T07:18:54.484Z,29.11
2023-05-05T07:21:56.718Z,28.71
2023-05-05T07:24:58.985Z,28.57
2023-05-05T07:28:01.531Z,28.72
2023-05-05T07:31:03.751Z,28.17
2023-05-05T07:34:05.920Z,27.00
2023-05-05T07:37:08.132Z,27.07
2023-05-05T07:40:10.969Z,28.32
2023-05-05T07:43:13.459Z,28.66
2023-05-05T07:46:16.142Z,29.66
2023-05-05T07:49:18.429Z,26.77
2023-05-05T07:52:30.106Z,25.76
2023-05-05T07:55:39.962Z,25.76
2023-05-05T07:58:42.297Z,26.02
2023-05-05T08:01:44.707Z,25.84
2023-05-05T08:04:46.935Z,26.08
2023-05-05T08:07:49.215Z,26.41
2023-05-05T08:10:53.015Z,27.23
2023-05-05T08:13:55.416Z,27.91
2023-05-05T08:16:57.668Z,27.78
2023-05-05T08:19:59.936Z,26.92
2023-05-05T08:23:02.234Z,26.08
2023-05-05T08:26:09.478Z,25.89
2023-05-05T08:29:11.842Z,25.66
2023-05-05T08:32:16.229Z,25.21
2023-05-05T08:35:18.576Z,24.29
2023-05-05T08:38:20.872Z,23.79
2023-05-05T08:41:23.146Z,23.47
2023-05-05T08:44:26.985Z,23.16
2023-05-05T08:47:30.079Z,22.83
2023-05-05T08:50:32.608Z,22.59
2023-05-05T08:54:01.405Z,22.35
2023-05-05T08:57:05.391Z,22.21
2023-05-05T09:00:09.936Z,22.10
2023-05-05T09:03:13.161Z,22.08
2023-05-05T09:06:16.023Z,22.09
2023-05-05T09:09:18.211Z,22.31
2023-05-05T09:12:21.475Z,22.51
2023-05-05T09:15:23.725Z,22.61
2023-05-05T09:18:26.490Z,22.62
2023-05-05T09:21:29.342Z,22.65
2023-05-05T09:24:31.570Z,22.65
2023-05-05T09:27:47.022Z,22.71
2023-05-05T09:30:49.380Z,22.79
2023-05-05T09:33:51.926Z,22.84
2023-05-05T09:36:54.095Z,22.84
2023-05-05T09:39:57.720Z,22.78
2023-05-05T09:43:03.208Z,22.75
2023-05-05T09:46:07.423Z,22.74
2023-05-05T09:49:15.550Z,22.75
2023-05-05T09:52:17.830Z,22.62
2023-05-05T09:55:20.151Z,22.26
2023-05-05T09:58:26.918Z,22.09
2023-05-05T10:01:29.332Z,22.02
2023-05-05T10:04:31.924Z,21.98
2023-05-05T10:07:35.480Z,21.96
2023-05-05T10:10:46.659Z,22.04
2023-05-05T10:13:48.943Z,22.11
2023-05-05T10:16:52.676Z,21.89
2023-05-05T10:19:57.325Z,21.83
2023-05-05T10:23:00.097Z,21.88
2023-05-05T10:26:05.487Z,21.84
2023-05-05T10:29:17.751Z,21.92
2023-05-05T10:35:37.641Z,22.04
2023-05-05T10:38:39.928Z,21.93
2023-05-05T10:41:42.290Z,21.88
2023-05-05T10:44:44.592Z,21.81
2023-05-05T10:47:46.912Z,21.84
2023-05-05T10:50:52.847Z,21.89
2023-05-05T10:54:00.941Z,21.85
2023-05-05T10:57:04.966Z,21.74
2023-05-05T11:00:08.974Z,21.68
2023-05-05T11:03:17.724Z,21.73
2023-05-05T11:06:20.034Z,21.76
2023-05-05T11:09:29.694Z,21.76
2023-05-05T11:12:33.475Z,21.78
2023-05-05T11:15:37.923Z,21.69
2023-05-05T11:18:44.395Z,21.63
2023-05-05T11:22:06.877Z,21.70
2023-05-05T11:25:34.375Z,21.68
2023-05-05T11:28:59.626Z,21.70
2023-05-05T11:32:15.696Z,21.72
2023-05-05T11:35:18.095Z,21.71
2023-05-05T11:38:30.900Z,21.70
2023-05-05T11:41:33.357Z,21.68
2023-05-05T11:44:35.957Z,21.61
2023-05-05T11:47:38.277Z,21.55
2023-05-05T11:50:40.799Z,21.58
2023-05-05T11:53:44.129Z,21.66
2023-05-05T11:56:59.334Z,21.72
2023-05-05T12:00:02.770Z,21.73
2023-05-05T12:03:06.960Z,21.71
2023-05-05T12:06:09.373Z,21.72
2023-05-05T12:09:19.212Z,21.77
2023-05-05T12:12:22.053Z,21.82
2023-05-05T12:15:33.313Z,21.68
2023-05-05T12:18:35.564Z,21.49
2023-05-05T12:21:38.474Z,21.49
2023-05-05T12:24:40.738Z,21.62
2023-05-05T12:27:51.961Z,21.71
2023-05-05T12:30:58.798Z,21.69
2023-05-05T12:34:01.914Z,21.69
2023-05-05T12:37:04.730Z,21.65
2023-05-05T12:40:08.848Z,21.73
2023-05-05T12:43:24.073Z,21.77
2023-05-05T12:46:32.023Z,21.84
2023-05-05T12:49:50.924Z,21.93
2023-05-05T12:52:53.451Z,21.99
2023-05-05T12:55:55.674Z,22.06
2023-05-05T12:58:57.926Z,22.10
2023-05-05T13:02:01.559Z,22.15
2023-05-05T13:05:04.473Z,22.16
2023-05-05T13:08:07.475Z,22.17
2023-05-05T13:11:09.676Z,22.20
2023-05-05T13:14:11.884Z,22.26
2023-05-05T13:17:14.489Z,22.24
2023-05-05T13:20:16.987Z,22.19
2023-05-05T13:23:19.959Z,22.13
2023-05-05T13:26:22.332Z,22.20
2023-05-05T13:29:29.579Z,22.25
2023-05-05T13:32:33.787Z,22.25
2023-05-05T13:35:36.185Z,22.27
2023-05-05T13:38:38.591Z,22.17
2023-05-05T13:41:40.839Z,22.22
2023-05-05T13:44:43.121Z,22.26
2023-05-05T13:47:45.681Z,22.32
2023-05-05T13:50:48.977Z,22.36
2023-05-05T13:53:51.469Z,22.41
2023-05-05T13:56:53.820Z,22.50
2023-05-05T13:59:56.090Z,22.48
2023-05-05T14:02:58.377Z,22.49
2023-05-05T14:06:00.810Z,22.50
2023-05-05T14:09:05.986Z,22.50
2023-05-05T14:12:08.619Z,22.50
2023-05-05T14:15:11.753Z,22.42
2023-05-05T14:18:14.076Z,22.33
2023-05-05T14:21:16.489Z,22.16
2023-05-05T14:24:18.726Z,22.15
2023-05-05T14:27:21.044Z,22.14
2023-05-05T14:30:23.429Z,22.10
2023-05-05T14:33:25.898Z,22.09
2023-05-05T14:36:28.164Z,22.00
2023-05-05T14:39:30.464Z,22.03
2023-05-05T14:42:32.711Z,22.00
2023-05-05T14:45:35.003Z,21.94
2023-05-05T14:48:37.666Z,21.95
2023-05-05T14:51:39.821Z,22.03
2023-05-05T14:54:41.945Z,22.08
2023-05-05T14:57:44.210Z,22.12
2023-05-05T15:00:46.507Z,22.19
2023-05-05T15:03:48.800Z,22.22
2023-05-05T15:06:51.190Z,22.30
2023-05-05T15:09:53.384Z,22.28
2023-05-05T15:12:55.641Z,22.31
2023-05-05T15:15:57.943Z,22.28
2023-05-05T15:19:00.268Z,22.25
2023-05-05T15:22:02.583Z,22.30
2023-05-05T15:25:07.239Z,22.33
2023-05-05T15:28:09.729Z,22.36
2023-05-05T15:31:11.977Z,22.35
2023-05-05T15:34:14.240Z,22.37
2023-05-05T15:37:16.443Z,22.39
2023-05-05T15:40:18.752Z,22.37
2023-05-05T15:43:21.033Z,22.37
2023-05-05T15:46:23.293Z,22.38
2023-05-05T15:49:25.584Z,22.40
2023-05-05T15:52:27.789Z,22.40
2023-05-05T15:55:30.037Z,22.40
2023-05-05T15:58:32.263Z,22.38
2023-05-05T16:01:36.221Z,22.37
2023-05-05T16:04:38.575Z,22.33
2023-05-05T16:07:40.845Z,22.34
2023-05-05T16:10:43.169Z,22.32
2023-05-05T16:13:45.647Z,22.30
2023-05-05T16:16:47.996Z,22.25
2023-05-05T16:19:50.419Z,22.23
2023-05-05T16:22:52.648Z,22.23
2023-05-05T16:25:54.877Z,22.21
2023-05-05T16:28:57.245Z,22.23
2023-05-05T16:31:59.541Z,22.26
2023-05-05T16:35:02.268Z,22.23
2023-05-05T16:38:04.987Z,22.19
2023-05-05T16:41:07.642Z,22.17
2023-05-05T16:44:09.917Z,22.17
2023-05-05T16:47:12.265Z,22.19
2023-05-05T16:50:15.310Z,22.21
2023-05-05T16:53:17.574Z,22.21
2023-05-05T16:56:19.842Z,22.26
2023-05-05T16:59:22.185Z,22.15
2023-05-05T17:02:24.600Z,22.09
2023-05-05T17:05:27.017Z,22.08
2023-05-05T17:08:29.329Z,22.05
2023-05-05T17:11:31.744Z,21.95
2023-05-05T17:14:33.987Z,21.93
2023-05-05T17:17:36.296Z,21.87
2023-05-05T17:20:38.572Z,21.85
2023-05-05T17:23:40.861Z,21.79
2023-05-05T17:26:43.144Z,21.77
2023-05-05T17:29:45.377Z,21.73
2023-05-05T17:32:47.981Z,21.74
2023-05-05T17:35:50.136Z,21.73
2023-05-05T17:38:52.287Z,21.67
2023-05-05T17:41:54.496Z,21.58
2023-05-05T17:44:56.731Z,21.57
2023-05-05T17:47:59.024Z,21.54
2023-05-05T17:51:01.398Z,21.54
2023-05-05T17:54:03.743Z,21.52
2023-05-05T17:57:05.978Z,21.54
2023-05-05T18:00:09.080Z,21.49
2023-05-05T18:03:17.336Z,21.47
2023-05-05T18:06:19.644Z,21.41
2023-05-05T18:09:22.234Z,21.34
2023-05-05T18:12:24.476Z,21.28
2023-05-05T18:15:26.797Z,21.25
2023-05-05T18:18:29.476Z,21.18
2023-05-05T18:21:31.981Z,21.14
2023-05-05T18:24:34.277Z,21.14
2023-05-05T18:27:37.313Z,21.10
2023-05-05T18:30:39.556Z,21.07
2023-05-05T18:33:41.828Z,21.03
2023-05-05T18:36:44.449Z,21.01
2023-05-05T18:39:46.798Z,20.96
2023-05-05T18:42:49.263Z,20.93
2023-05-05T18:45:51.668Z,20.86
2023-05-05T18:48:53.996Z,20.79
2023-05-05T18:51:56.605Z,20.74
2023-05-05T18:54:59.610Z,20.67
2023-05-05T18:58:01.861Z,20.59
2023-05-05T19:01:04.189Z,20.55
2023-05-05T19:04:15.597Z,20.50
2023-05-05T19:07:34.337Z,20.46
2023-05-05T19:10:38.001Z,20.40
2023-05-05T19:13:40.869Z,20.33
2023-05-05T19:16:43.197Z,20.25
2023-05-05T19:19:45.558Z,20.17
2023-05-05T19:22:48.127Z,20.12
2023-05-05T19:25:53.576Z,20.02
2023-05-05T19:28:55.994Z,19.95
2023-05-05T19:31:58.261Z,19.88
2023-05-05T19:35:00.657Z,19.83
2023-05-05T19:38:02.937Z,19.79
2023-05-05T19:41:05.454Z,19.77
2023-05-05T19:44:07.690Z,19.75
2023-05-05T19:47:11.046Z,19.72
2023-05-05T19:50:15.370Z,19.66
2023-05-05T19:53:17.769Z,19.59
2023-05-05T19:56:19.991Z,19.46
2023-05-05T19:59:22.415Z,19.35
2023-05-05T20:02:26.613Z,19.22
2023-05-05T20:05:29.004Z,19.00
2023-05-05T20:08:31.263Z,18.81
2023-05-05T20:11:33.813Z,18.75
2023-05-05T20:14:36.082Z,18.79
2023-05-05T20:17:38.423Z,18.84
2023-05-05T20:20:40.718Z,18.89
2023-05-05T20:23:44.425Z,18.91
2023-05-05T20:26:46.778Z,18.85
2023-05-05T20:29:49.078Z,18.76
2023-05-05T20:32:51.434Z,18.55
2023-05-05T20:35:53.856Z,18.33
2023-05-05T20:38:56.122Z,18.23
2023-05-05T20:41:58.346Z,18.21
2023-05-05T20:45:01.824Z,18.19
2023-05-05T20:48:05.566Z,18.18
2023-05-05T20:51:07.975Z,18.21
2023-05-05T20:54:10.282Z,18.25
2023-05-05T20:57:12.527Z,18.27
2023-05-05T21:00:15.064Z,18.13
2023-05-05T21:03:17.407Z,17.96
2023-05-05T21:06:19.736Z,17.94
2023-05-05T21:09:23.475Z,17.95
2023-05-05T21:12:26.281Z,17.97
2023-05-05T21:15:28.706Z,18.01
2023-05-05T21:18:30.949Z,18.02
2023-05-05T21:21:33.253Z,18.00
2023-05-05T21:24:35.646Z,17.90
2023-05-05T21:27:38.133Z,17.89
2023-05-05T21:30:40.458Z,17.89
2023-05-05T21:33:42.736Z,17.83
2023-05-05T21:36:45.115Z,17.81
2023-05-05T21:39:49.472Z,17.80
2023-05-05T21:42:51.737Z,17.78
2023-05-05T21:46:04.845Z,17.73
2023-05-05T21:49:14.308Z,17.72
2023-05-05T21:52:17.149Z,17.70
2023-05-05T21:55:19.533Z,17.62
2023-05-05T21:58:23.731Z,17.49
2023-05-05T22:01:26.042Z,17.45
2023-05-05T22:04:28.278Z,17.43
2023-05-05T22:07:31.128Z,17.34
2023-05-05T22:10:35.179Z,17.27
2023-05-05T22:13:38.983Z,17.30
2023-05-05T22:16:41.522Z,17.34
2023-05-05T22:19:43.947Z,17.34
2023-05-05T22:22:46.199Z,17.33
2023-05-05T22:25:48.479Z,17.35
2023-05-05T22:28:50.731Z,17.31
2023-05-05T22:31:53.325Z,17.13
2023-05-05T22:34:55.701Z,17.01
2023-05-05T22:37:57.949Z,16.95
2023-05-05T22:41:00.231Z,16.85
2023-05-05T22:44:02.520Z,16.81
2023-05-05T22:47:04.903Z,16.83
2023-05-05T22:50:08.137Z,16.85
2023-05-05T22:53:10.508Z,16.90
2023-05-05T22:56:12.723Z,16.86
2023-05-05T22:59:14.963Z,16.83
2023-05-05T23:02:17.439Z,16.80
2023-05-05T23:05:19.851Z,16.73
2023-05-05T23:08:23.975Z,16.69
2023-05-05T23:11:26.547Z,16.68
2023-05-05T23:14:28.794Z,16.64
2023-05-05T23:17:31.210Z,16.36
2023-05-05T23:20:33.452Z,16.25
2023-05-05T23:23:35.660Z,16.30
2023-05-05T23:26:37.895Z,16.39
2023-05-05T23:29:40.129Z,16.40
2023-05-05T23:32:44.160Z,16.43
2023-05-05T23:35:46.976Z,16.43
2023-05-05T23:38:49.195Z,16.37
2023-05-05T23:41:51.404Z,16.39
2023-05-05T23:44:53.646Z,16.38
2023-05-05T23:47:56.066Z,16.39
2023-05-05T23:50:58.390Z,16.33
2023-05-05T23:54:01.212Z,16.26
2023-05-05T23:57:03.493Z,16.26
